Genco Aquitaine — V7DT9 — position and weather

sailwx.info

Track history (hours):
 
Tides and Currents Weather Stations Pressure Air Temp Water Temp Dewpoint Dewpoint Depression Visibility Wind Speed Wind Dir Waves Ship Positions

Genco Aquitaine

Last reported at 2018-Apr-18 13:47 UTC. Time now 2018-Apr-24 10:51 UTC.
Position N 46°49' W 071°12'.

Length 189 m; draft 6.1 m.

Type: Ship. MMSI: 367033036.

Date/timePositionNaut miles runAvg speedWind from/ knotsBaromVisibWave heightAir tempDewpointWater temp
2018-Apr-18 13:47N 46°49' W 071°12'  
2018-Apr-10 03:18N 36°50' W 029°10'612.3
2018-Apr-10 02:49N 36°48' W 029°03'412.4
2018-Apr-10 02:29N 36°47' W 028°58'1212.6
2018-Apr-10 01:29N 36°44' W 028°43'1112.5
2018-Apr-10 00:35N 36°42' W 028°30'7912.3
2018-Apr-09 18:12N 36°23' W 026°54'312.2
2018-Apr-09 17:59N 36°22' W 026°51'611.8
2018-Apr-09 17:30N 36°21' W 026°44'1211.8
2018-Apr-09 16:27N 36°18' W 026°29'511.9
2018-Apr-09 16:00N 36°17' W 026°23'611.5
2018-Apr-09 15:30N 36°15' W 026°16'611.2
2018-Apr-09 15:00N 36°14' W 026°09'611.2
2018-Apr-09 14:30N 36°12' W 026°02'511.1
2018-Apr-09 14:01N 36°11' W 025°56'611.0
2018-Apr-09 13:30N 36°09' W 025°49'611.1
2018-Apr-09 13:00N 36°08' W 025°42'510.9
2018-Apr-09 12:30N 36°07' W 025°36'611.4
2018-Apr-09 12:01N 36°06' W 025°29'611.5
2018-Apr-09 11:31N 36°05' W 025°22'611.4
2018-Apr-09 11:00N 36°04' W 025°15'611.3
2018-Apr-09 10:30N 36°02' W 025°08'611.4
2018-Apr-09 10:00N 36°01' W 025°01'611.6
2018-Apr-09 09:30N 36°00' W 024°54'611.6
2018-Apr-09 09:00N 36°00' W 024°47'611.5
2018-Apr-09 08:30N 36°00' W 024°40'611.6
2018-Apr-09 08:00N 36°01' W 024°33'611.5
2018-Apr-09 07:30N 36°01' W 024°26'611.3
2018-Apr-09 07:01N 36°01' W 024°19'611.1
2018-Apr-09 06:30N 36°01' W 024°12'611.6
2018-Apr-09 06:00N 36°01' W 024°05'611.5
2018-Apr-09 05:30N 36°01' W 023°58'611.2
2018-Apr-09 05:00N 36°01' W 023°51'711.5
2018-Apr-09 04:25N 36°02' W 023°42'511.4
2018-Apr-09 03:59N 36°02' W 023°36'811.4
2018-Apr-09 03:18N 36°02' W 023°27'6511.6
2018-Apr-08 21:41N 36°02' W 022°06'3711.5
2018-Apr-08 18:27N 36°06' W 021°21'1211.0
2018-Apr-08 17:22N 36°05' W 021°06'  
Track history (hours):
 
Tides and Currents Weather Stations Pressure Air Temp Water Temp Dewpoint Dewpoint Depression Visibility Wind Speed Wind Dir Waves Ship Positions

Genco Aquitaine

Last reported at 2018-Apr-18 13:47 UTC. Time now 2018-Apr-24 10:51 UTC.
Position N 46°49' W 071°12'.

Length 189 m; draft 6.1 m.

Type: Ship. MMSI: 367033036.

Date/timePositionNaut miles runAvg speedWind from/ knotsBaromVisibWave heightAir tempDewpointWater temp
2018-Apr-18 13:47N 46°49' W 071°12'  
2018-Apr-10 03:18N 36°50' W 029°10'612.3
2018-Apr-10 02:49N 36°48' W 029°03'412.4
2018-Apr-10 02:29N 36°47' W 028°58'1212.6
2018-Apr-10 01:29N 36°44' W 028°43'1112.5
2018-Apr-10 00:35N 36°42' W 028°30'7912.3
2018-Apr-09 18:12N 36°23' W 026°54'312.2
2018-Apr-09 17:59N 36°22' W 026°51'611.8
2018-Apr-09 17:30N 36°21' W 026°44'1211.8
2018-Apr-09 16:27N 36°18' W 026°29'511.9
2018-Apr-09 16:00N 36°17' W 026°23'611.5
2018-Apr-09 15:30N 36°15' W 026°16'611.2
2018-Apr-09 15:00N 36°14' W 026°09'611.2
2018-Apr-09 14:30N 36°12' W 026°02'511.1
2018-Apr-09 14:01N 36°11' W 025°56'611.0
2018-Apr-09 13:30N 36°09' W 025°49'611.1
2018-Apr-09 13:00N 36°08' W 025°42'510.9
2018-Apr-09 12:30N 36°07' W 025°36'611.4
2018-Apr-09 12:01N 36°06' W 025°29'611.5
2018-Apr-09 11:31N 36°05' W 025°22'611.4
2018-Apr-09 11:00N 36°04' W 025°15'611.3
2018-Apr-09 10:30N 36°02' W 025°08'611.4
2018-Apr-09 10:00N 36°01' W 025°01'611.6
2018-Apr-09 09:30N 36°00' W 024°54'611.6
2018-Apr-09 09:00N 36°00' W 024°47'611.5
2018-Apr-09 08:30N 36°00' W 024°40'611.6
2018-Apr-09 08:00N 36°01' W 024°33'611.5
2018-Apr-09 07:30N 36°01' W 024°26'611.3
2018-Apr-09 07:01N 36°01' W 024°19'611.1
2018-Apr-09 06:30N 36°01' W 024°12'611.6
2018-Apr-09 06:00N 36°01' W 024°05'611.5
2018-Apr-09 05:30N 36°01' W 023°58'611.2
2018-Apr-09 05:00N 36°01' W 023°51'711.5
2018-Apr-09 04:25N 36°02' W 023°42'511.4
2018-Apr-09 03:59N 36°02' W 023°36'811.4
2018-Apr-09 03:18N 36°02' W 023°27'6511.6
2018-Apr-08 21:41N 36°02' W 022°06'3711.5
2018-Apr-08 18:27N 36°06' W 021°21'1211.0
2018-Apr-08 17:22N 36°05' W 021°06'  

Dump ship's entire track history